Tiempo atmosférico en la estación meteorológica de Elgeta, Gipuzkoa (470 m.)



Fecha
DESCASC
Temp. máxima en grados centígrados (hora)
DESCASC
Temp. mínima en grados centígrados (hora)
DESCASC
Temp. media en grados centígrados
DESCASC
Racha de viento máxima en m/sg (hora)
DESCASC
Velocidad máxima media en intervalos de 10 minutos(hora)
DESCASC
Precipitaciones diarias en mm
DESCASC
Precipitaciones de 00:00 a 06:00 en mm
DESCASC
Precipitaciones de 06:00 a 12:00 en mm
DESCASC
Precipitaciones de 12:00 a 18:00 en mm
DESCASC
Precipitaciones de 18:00 a 24:00 en mm
DESCASC
16-01-2020 15.1 (13:30) 9.8 (08:20) 12.5 12.22 (23:30) 4.17 (18:50) 0 0 0 0 0
15-01-2020 13 (16:00) 8.4 (22:20) 10.7 13.33 (06:00) 5 (03:20) 0 0 0 0 0
14-01-2020 12 (13:30) 6.9 (00:40) 9.5 16.67 (20:30) 4.72 (16:30) 0 0 0 0 0
13-01-2020 10 (12:50) 3.5 (03:30) 6.8 8.89 (17:30) 3.61 (17:30) 0 0 0 0 0
12-01-2020 9.5 (14:50) 1.8 (00:00) 5.6 4.44 (15:20) 2.78 (10:40) 0 0 0 0 0
11-01-2020 8 (13:50) 1.6 (00:00) 4.8 3.89 (05:40) 2.5 (11:30) 0.2 0 0 0.2 0
10-01-2020 8.3 (14:00) 4.1 (00:00) 6.2 9.72 (10:30) 4.17 (10:30) 0.8 0.8 0 0 0
09-01-2020 13.3 (16:10) 5.6 (00:00) 9.5 11.11 (17:20) 4.17 (17:10) 1 0 0 0 1
08-01-2020 12.1 (14:40) 7.2 (00:00) 9.7 5 (22:50) 2.5 (22:30) 0 0 0 0 0
07-01-2020 10.9 (14:50) 3.2 (00:00) 7 3.89 (08:00) 2.5 (08:20) 0 0 0 0 0
06-01-2020 8.4 (14:50) 1 (00:00) 4.7 4.44 (06:00) 2.5 (06:10) 0 0 0 0 0
05-01-2020 7.1 (14:50) 2.4 (00:00) 4.8 2.78 (11:20) 1.67 (11:20) 0.2 0.2 0 0 0
04-01-2020 8.1 (00:00) 5.9 (00:00) 7 5 (12:40) 2.22 (04:00) 4.6 1.6 2 1 0
03-01-2020 8.2 (21:50) 2.8 (00:00) 5.5 5.28 (22:10) 2.78 (08:20) 0.6 0 0 0.4 0.2
02-01-2020 11.8 (15:20) 1.3 (00:00) 6.6 5 (08:00) 2.78 (08:00) 0 0 0 0 0
01-01-2020 7.9 (14:50) 2.6 (00:00) 5.3 3.61 (11:40) 2.5 (23:59) 0 0 0 0 0
31-12-2019 9.3 (14:00) 1.7 (00:00) 5.5 4.72 (01:40) 3.06 (01:40) 0 0 0 0 0
30-12-2019 -- (--) -- (--) -- -- (--) -- (--) -- 0 0 0 --
29-12-2019 11.1 (15:00) 4.6 (00:00) 7.9 4.44 (04:10) 3.06 (10:10) 0 0 0 0 0
28-12-2019 11.2 (15:20) 5.4 (00:00) 8.3 3.61 (03:50) 2.5 (00:40) 0 0 0 0 0
27-12-2019 8.4 (14:50) 3.4 (00:00) 5.9 3.33 (21:10) 2.5 (20:40) 0 0 0 0 0
26-12-2019 15.1 (02:30) 4.9 (00:00) 10 10 (04:00) 3.33 (03:30) 0 0 0 0 0
25-12-2019 16.3 (18:40) 7.9 (00:00) 12.1 5.83 (18:30) 3.06 (12:00) 0 0 0 0 0
24-12-2019 13.8 (13:20) 8.4 (00:00) 11.1 5.28 (04:50) 1.94 (12:00) 0 0 0 0 0
23-12-2019 11 (13:40) 5.7 (00:00) 8.3 5.28 (02:00) 1.94 (21:40) 0 0 0 0 0
22-12-2019 13.1 (14:00) 7 (00:00) 10.1 15 (17:10) 4.72 (18:30) 18.6 1.8 0 6.6 10.2
21-12-2019 18.3 (14:50) 5.9 (00:00) 12.1 15 (18:00) 5.28 (15:20) 4.8 0 0 4.6 0.2

Gráficas

Temp. máximas Temp. mínimas Temp. medias Precipitaciones Rachas de viento máximas Velocidades máximas media en intervalos de 10 minutos

Datos horarios

Fecha y hora oficial Temperatura (ºC) Velocidad del viento (km/h) Dirección del viento Racha (km/h) Dirección de racha Precipitación (mm) Presión (hPa) Tendencia (hPa) Humedad (%)
2020-01-19 23:00:00 3.1 12 Este 36 Este 0 -- -- 68
2020-01-19 22:00:00 3.5 10 Este 46 Este 0 -- -- 67
2020-01-19 21:00:00 3.9 12 Este 43 Este 0 -- -- 66
2020-01-19 20:00:00 4.3 7 Este 41 Este 0 -- -- 60
2020-01-19 19:00:00 4.6 9 Este 36 Nordeste 0 -- -- 63
2020-01-19 18:00:00 4.4 8 Norte 27 Sudeste 0 -- -- 69
2020-01-19 17:00:00 4.6 8 Norte 25 Norte 0 -- -- 70
2020-01-19 16:00:00 4.8 11 Este 28 Este 0 -- -- 71
2020-01-19 15:00:00 5 6 Nordeste 26 Norte 0 -- -- 74
2020-01-19 14:00:00 5 7 Norte 32 Noroeste 0 -- -- 78
2020-01-19 13:00:00 4.5 7 Nordeste 21 Nordeste 0 -- -- 79
2020-01-19 12:00:00 4.4 5 Este 18 Oeste 0 -- -- 81
2020-01-19 11:00:00 4.3 5 Norte 23 Noroeste 0 -- -- 83
2020-01-19 10:00:00 4.3 5 Noroeste 22 Oeste 0 -- -- 87
2020-01-19 09:00:00 4.5 7 Noroeste 18 Noroeste 0 -- -- 89
2020-01-19 08:00:00 4.7 6 Oeste 21 Norte 0.2 -- -- 91
2020-01-19 07:00:00 4.7 8 Nordeste 25 Oeste 0 -- -- 93
2020-01-19 06:00:00 4.9 7 Este 30 Este 0 -- -- 90
2020-01-19 05:00:00 5.9 9 Este 37 Norte 0 -- -- 94
2020-01-19 04:00:00 5.6 9 Norte 35 Norte 0 -- -- 95
2020-01-19 03:00:00 6.1 8 Norte 23 Oeste 0 -- -- 96
2020-01-19 02:00:00 6.3 9 Noroeste 29 Noroeste 0 -- -- 95
2020-01-19 01:00:00 5.8 3 Noroeste 12 Noroeste 0 -- -- 96
2020-01-19 00:00:00 5.7 6 Noroeste 15 Noroeste 0 -- -- 96
2020-01-18 23:00:00 5.2 2 Norte 10 Sudeste 0 -- -- 97
2020-01-18 22:00:00 5.4 5 Sudeste 11 Sudeste 0 -- -- 96
2020-01-18 21:00:00 5.4 4 Sur 7 Sudeste 1.4 -- -- 94
2020-01-18 20:00:00 5.8 4 Oeste 23 Nordeste 0 -- -- 91
2020-01-18 19:00:00 6.5 11 Norte 37 Noroeste 1.2 -- -- 93
2020-01-18 18:00:00 8.5 4 Sur 26 Sudeste 0 -- -- 80
2020-01-18 17:00:00 8.7 19 Sudeste 44 Sudeste 0 -- -- 78
2020-01-18 16:00:00 10.6 8 Sudeste 21 Este 0 -- -- 62
2020-01-18 15:00:00 13.6 6 Este 21 Sudeste 0 -- -- 53
2020-01-18 14:00:00 12.1 9 Sudeste 30 Este 0 -- -- 52
2020-01-18 13:00:00 9.7 5 Sudeste 25 Sur 0 -- -- 58
2020-01-18 12:00:00 10.3 6 Sudeste 21 Este 0 -- -- 53
2020-01-18 11:00:00 8.1 10 Este 21 Sudeste 0 -- -- 63
2020-01-18 10:00:00 6.2 7 Sudeste 21 Sudeste 0 -- -- 72
2020-01-18 09:00:00 7.1 12 Sudeste 23 Sudeste 0 -- -- 65
2020-01-18 08:00:00 6.9 5 Sudeste 19 Sur 0 -- -- 69
2020-01-18 07:00:00 4.9 3 Sur 20 Sudeste 0 -- -- 80
2020-01-18 06:00:00 5.2 5 Sudeste 18 Sudeste 0.2 -- -- 80
2020-01-18 05:00:00 4.6 5 Sudeste 13 Sudeste 0 -- -- 84
2020-01-18 04:00:00 4.3 6 Sur 13 Sudeste 0 -- -- 88
2020-01-18 03:00:00 4.2 8 Sudeste 13 Sudeste 0 -- -- 91
2020-01-18 02:00:00 4.3 5 Sur 9 Sudeste 0 -- -- 89
2020-01-18 01:00:00 4.2 3 Sur 8 Sudeste 0 -- -- 90
2020-01-18 00:00:00 4.5 4 Sur 7 Sudeste 0 -- -- 90
2020-01-17 23:00:00 4.9 3 Sur 7 Sudeste 0 -- -- 89
2020-01-17 22:00:00 4.5 2 Sur 5 Sudoeste 0 -- -- 91
2020-01-17 21:00:00 5.2 0 Calma 10 Oeste 0 -- -- 88
2020-01-17 20:00:00 5.2 4 Noroeste 14 Noroeste 0 -- -- 87
2020-01-17 19:00:00 5.5 6 Oeste 13 Noroeste 0 -- -- 88
2020-01-17 18:00:00 6.3 4 Noroeste 15 Oeste 0 -- -- 85
2020-01-17 17:00:00 7.7 4 Noroeste 14 Norte 0 -- -- 79
2020-01-17 16:00:00 8.5 5 Noroeste 20 Oeste 0 -- -- 76
2020-01-17 15:00:00 8.1 5 Noroeste 15 Noroeste 0 -- -- 78
2020-01-17 14:00:00 7.1 4 Norte 24 Oeste 0 -- -- 90
2020-01-17 13:00:00 7.6 6 Noroeste 16 Oeste 0 -- -- 87
2020-01-17 12:00:00 7 3 Noroeste 9 Norte 0 -- -- 93
2020-01-17 11:00:00 6.2 4 Norte 21 Noroeste 1.4 -- -- 94
2020-01-17 10:00:00 6.6 4 Noroeste 23 Noroeste 0 -- -- 93
2020-01-17 09:00:00 6.5 9 Noroeste 24 Oeste 0.2 -- -- 93
2020-01-17 08:00:00 7.4 10 Noroeste 28 Oeste 0.2 -- -- 91
2020-01-17 07:00:00 8 3 Oeste 19 Noroeste 1.2 -- -- 88
2020-01-17 06:00:00 10.3 6 Oeste 26 Noroeste 0 -- -- 68
2020-01-17 05:00:00 10.5 7 Sur 23 Sudoeste 0 -- -- 63
2020-01-17 04:00:00 10.9 7 Oeste 34 Sudeste 0 -- -- 60
2020-01-17 03:00:00 10.5 5 Noroeste 34 Nordeste 0 -- -- 60
2020-01-17 02:00:00 11.2 13 Nordeste 32 Este 0 -- -- 58
2020-01-17 01:00:00 11.6 9 Este 29 Este 0 -- -- 57
2020-01-17 00:00:00 12 10 Este 44 Nordeste 0 -- -- 55
2020-01-16 23:00:00 12.1 9 Este 25 Nordeste 0 -- -- 55
2020-01-16 22:00:00 11.9 5 Nordeste 24 Sudeste 0 -- -- 63
2020-01-16 21:00:00 12.3 7 Sudeste 25 Este 0 -- -- 62
2020-01-16 20:00:00 12.2 6 Nordeste 26 Sudeste 0 -- -- 62
2020-01-16 19:00:00 12.4 10 Sudeste 33 Sudeste 0 -- -- 63
2020-01-16 18:00:00 12.8 9 Sudeste 24 Sur 0 -- -- 62
2020-01-16 17:00:00 13.1 10 Sudeste 22 Sur 0 -- -- 62
2020-01-16 16:00:00 14.2 8 Este 20 Este 0 -- -- 57
2020-01-16 15:00:00 14.2 5 Este 24 Sudeste 0 -- -- 57
2020-01-16 14:00:00 15 5 Nordeste 22 Sudeste 0 -- -- 54
2020-01-16 13:00:00 14.2 5 Nordeste 22 Norte 0 -- -- 57
2020-01-16 12:00:00 12.6 4 Este 18 Sur 0 -- -- 61
2020-01-16 11:00:00 11.5 6 Este 18 Este 0 -- -- 64
2020-01-16 10:00:00 10.8 5 Sudeste 22 Este 0 -- -- 66
2020-01-16 09:00:00 10 3 Este 17 Este 0 -- -- 70
2020-01-16 08:00:00 10.6 5 Sudeste 17 Noroeste 0 -- -- 67
2020-01-16 07:00:00 10.6 4 Este 23 Nordeste 0 -- -- 69
2020-01-16 06:00:00 11.7 6 Sur 17 Oeste 0 -- -- 65
2020-01-16 05:00:00 11.7 7 Sudeste 28 Sudeste 0 -- -- 65
2020-01-16 04:00:00 12.1 6 Sur 24 Sudeste 0 -- -- 64
2020-01-16 03:00:00 11.7 8 Este 30 Nordeste 0 -- -- 68
2020-01-16 02:00:00 11.2 6 Oeste 24 Sudeste 0 -- -- 71
2020-01-16 01:00:00 10.4 5 Sudoeste 20 Sur 0 -- -- 71
2020-01-16 00:00:00 10.2 6 Sur 23 Sur 0 -- -- 71
2020-01-15 23:00:00 8.5 5 Sur 17 Nordeste 0 -- -- 78
2020-01-15 22:00:00 8.5 4 Sudeste 10 Este 0 -- -- 76
2020-01-15 21:00:00 9 3 Sur 15 Este 0 -- -- 73
2020-01-15 20:00:00 9.8 3 Este 11 Noroeste 0 -- -- 70
2020-01-15 19:00:00 9.8 4 Sur 12 Nordeste 0 -- -- 70
2020-01-15 18:00:00 11.1 4 Sur 13 Nordeste 0 -- -- 65
2020-01-15 17:00:00 12.1 3 Oeste 22 Noroeste 0 -- -- 62
2020-01-15 16:00:00 13 5 Noroeste 23 Oeste 0 -- -- 58
2020-01-15 15:00:00 12.4 6 Oeste 31 Norte 0 -- -- 57
2020-01-15 14:00:00 12.6 9 Nordeste 35 Noroeste 0 -- -- 56
2020-01-15 13:00:00 11.7 6 Noroeste 22 Oeste 0 -- -- 57
2020-01-15 12:00:00 11.1 4 Nordeste 35 Noroeste 0 -- -- 61
2020-01-15 11:00:00 11.1 6 Este 29 Oeste 0 -- -- 56
2020-01-15 10:00:00 11.1 8 Este 39 Norte 0 -- -- 54
2020-01-15 09:00:00 10.8 15 Nordeste 38 Noroeste 0 -- -- 53
2020-01-15 08:00:00 10.3 13 Nordeste 42 Noroeste 0 -- -- 55
2020-01-15 07:00:00 10.4 12 Noroeste 37 Sudeste 0 -- -- 58
2020-01-15 06:00:00 10.5 16 Norte 48 Oeste 0 -- -- 61
2020-01-15 05:00:00 10.7 10 Oeste 40 Norte 0 -- -- 62
2020-01-15 04:00:00 10.5 9 Este 33 Nordeste 0 -- -- 64
2020-01-15 03:00:00 10.3 7 Este 28 Nordeste 0 -- -- 62
2020-01-15 02:00:00 10.4 12 Oeste 39 Sudoeste 0 -- -- 60
2020-01-15 01:00:00 9.8 9 Nordeste 39 Sudeste 0 -- -- 62
2020-01-15 00:00:00 9.7 7 Este 42 Norte 0 -- -- 61
2020-01-14 23:00:00 10.1 11 Sudeste 50 Noroeste 0 -- -- 57
2020-01-14 22:00:00 10.4 11 Noroeste 59 Oeste 0 -- -- 55
2020-01-14 21:00:00 10.7 10 Nordeste 60 Oeste 0 -- -- 54
2020-01-14 20:00:00 10.7 9 Sudeste 34 Sur 0 -- -- 52
2020-01-14 19:00:00 10.8 11 Este 40 Sur 0 -- -- 52
2020-01-14 18:00:00 11 10 Este 41 Sudeste 0 -- -- 53
2020-01-14 17:00:00 10.9 11 Norte 45 Sudoeste 0 -- -- 54
2020-01-14 16:00:00 11.4 10 Nordeste 31 Oeste 0 -- -- 53
2020-01-14 15:00:00 11.8 9 Norte 41 Sudeste 0 -- -- 51
2020-01-14 14:00:00 11.2 14 Sudeste 36 Sur 0 -- -- 54
2020-01-14 13:00:00 11.6 9 Sudeste 31 Sudeste 0 -- -- 55
2020-01-14 12:00:00 9.5 11 Sudoeste 37 Sudoeste 0 -- -- 63
2020-01-14 11:00:00 9.2 13 Sudoeste 37 Oeste 0 -- -- 63
2020-01-14 10:00:00 8.1 10 Sudeste 31 Sudeste 0 -- -- 70
2020-01-14 09:00:00 8.5 7 Este 30 Sudoeste 0 -- -- 66
2020-01-14 08:00:00 8.3 8 Sudoeste 27 Sudoeste 0 -- -- 66
2020-01-14 07:00:00 7.3 5 Sudeste 21 Sudoeste 0 -- -- 71
2020-01-14 06:00:00 7.7 5 Este 24 Oeste 0 -- -- 68
2020-01-14 05:00:00 7.8 8 Sudeste 28 Oeste 0 -- -- 66
2020-01-14 04:00:00 7.8 6 Sudeste 33 Oeste 0 -- -- 63
2020-01-14 03:00:00 7.4 7 Sudoeste 28 Sudeste 0 -- -- 63
2020-01-14 02:00:00 7.8 9 Nordeste 29 Este 0 -- -- 60
2020-01-14 01:00:00 7.1 10 Sudeste 22 Sudeste 0 -- -- 61
2020-01-14 00:00:00 7.4 7 Este 24 Este 0 -- -- 57
2020-01-13 23:00:00 7.4 6 Nordeste 24 Este 0 -- -- 53
2020-01-13 22:00:00 7.1 10 Sudeste 30 Sudeste 0 -- -- 52
2020-01-13 21:00:00 7.2 8 Sur 32 Este 0 -- -- 55
2020-01-13 20:00:00 7.5 7 Sudeste 26 Sudeste 0 -- -- 53
2020-01-13 19:00:00 7 4 Nordeste 19 Este 0 -- -- 57
2020-01-13 18:00:00 9.8 8 Nordeste 32 Este 0 -- -- 46
2020-01-13 17:00:00 9.5 7 Nordeste 21 Noroeste 0 -- -- 43
2020-01-13 16:00:00 8.7 5 Sudoeste 19 Este 0 -- -- 58
2020-01-13 15:00:00 8.1 3 Sudoeste 14 Sur 0 -- -- 60
2020-01-13 14:00:00 9.5 5 Norte 20 Sudeste 0 -- -- 51
2020-01-13 13:00:00 9.9 5 Este 15 Sudeste 0 -- -- 58
2020-01-13 12:00:00 8.8 6 Sudeste 14 Sudeste 0 -- -- 58
2020-01-13 11:00:00 6.4 5 Sudeste 17 Sudeste 0 -- -- 72
2020-01-13 10:00:00 4.8 5 Sur 12 Sudeste 0 -- -- 79
2020-01-13 09:00:00 4.4 7 Sur 14 Sudeste 0 -- -- 83
2020-01-13 08:00:00 4.7 4 Sur 18 Sudeste 0 -- -- 82
2020-01-13 07:00:00 6.4 8 Sudeste 23 Sudeste 0 -- -- 77
2020-01-13 06:00:00 3.9 9 Sudeste 14 Sudeste 0 -- -- 90
2020-01-13 05:00:00 3.5 9 Sur 14 Sudeste 0 -- -- 91
2020-01-13 04:00:00 3.9 6 Sur 12 Sur 0 -- -- 90
2020-01-13 03:00:00 3.9 4 Sur 9 Sur 0 -- -- 89
2020-01-13 02:00:00 4.2 6 Sur 12 Sudeste 0 -- -- 87
2020-01-13 01:00:00 4.6 4 Sudeste 10 Sur 0 -- -- 85
2020-01-13 00:00:00 4.5 5 Sur 9 Sur 0 -- -- 85
2020-01-12 23:00:00 4.8 4 Sur 8 Sur 0 -- -- 86
2020-01-12 22:00:00 5.7 4 Sur 6 Sur 0 -- -- 81
2020-01-12 21:00:00 5.9 4 Sur 6 Sur 0 -- -- 78
2020-01-12 20:00:00 6.1 4 Sur 6 Sur 0 -- -- 79
2020-01-12 19:00:00 6.1 3 Sudoeste 5 Sudoeste 0 -- -- 77
2020-01-12 18:00:00 5.9 3 Oeste 6 Sudoeste 0 -- -- 76
2020-01-12 17:00:00 6.7 4 Oeste 8 Noroeste 0 -- -- 73
2020-01-12 16:00:00 8.4 5 Oeste 16 Noroeste 0 -- -- 65
2020-01-12 15:00:00 9.4 6 Oeste 15 Oeste 0 -- -- 56
2020-01-12 14:00:00 9.1 3 Sudeste 9 Sudeste 0 -- -- 68
2020-01-12 13:00:00 7.6 5 Sudeste 10 Sudeste 0 -- -- 68
2020-01-12 12:00:00 5.6 5 Sudeste 10 Sur 0 -- -- 73
2020-01-12 11:00:00 3.4 5 Sur 13 Sudeste 0 -- -- 85
2020-01-12 10:00:00 2.5 4 Sur 13 Sur 0 -- -- 87
2020-01-12 09:00:00 2.1 9 Sudeste 12 Sudeste 0 -- -- 88
2020-01-12 08:00:00 2.1 5 Sur 10 Sudeste 0 -- -- 89
2020-01-12 07:00:00 2.1 4 Sur 9 Sur 0 -- -- 90
2020-01-12 06:00:00 2 4 Sur 9 Sur 0 -- -- 91
2020-01-12 05:00:00 2.5 6 Sur 11 Sur 0 -- -- 91
2020-01-12 04:00:00 2.6 4 Sur 9 Sudeste 0 -- -- 91
2020-01-12 03:00:00 2.6 4 Sur 10 Sudeste 0 -- -- 92
2020-01-12 02:00:00 2.6 5 Sur 11 Sudeste 0 -- -- 95
2020-01-12 01:00:00 2.6 6 Sur 9 Sur 0 -- -- 93
2020-01-12 00:00:00 3.2 4 Sur 9 Sur 0 -- -- 93
2020-01-11 23:00:00 3.3 3 Sudeste 8 Sur 0 -- -- 91
2020-01-11 22:00:00 3.8 4 Sur 6 Sur 0 -- -- 90
2020-01-11 21:00:00 3.9 4 Sur 8 Sur 0 -- -- 92
2020-01-11 20:00:00 4.2 4 Sur 7 Sur 0 -- -- 93
2020-01-11 19:00:00 4.7 4 Sur 6 Sudeste 0 -- -- 90
2020-01-11 18:00:00 4.9 5 Sudoeste 8 Sudoeste 0 -- -- 92
2020-01-11 17:00:00 5.8 5 Sudoeste 6 Sudoeste 0 -- -- 89
2020-01-11 16:00:00 6.4 5 Sudoeste 7 Sudoeste 0 -- -- 85
2020-01-11 15:00:00 7.1 3 Sudeste 8 Sur 0 -- -- 85
2020-01-11 14:00:00 8 4 Sudeste 8 Sudeste 0 -- -- 76
2020-01-11 13:00:00 6.5 3 Sudeste 9 Sudeste 0.2 -- -- 99
2020-01-11 12:00:00 4.3 4 Sudeste 12 Sudeste 0 -- -- 100
2020-01-11 11:00:00 3.3 4 Sudeste 12 Sudeste 0 -- -- 99
2020-01-11 10:00:00 3 6 Sudeste 12 Sudeste 0 -- -- 99
2020-01-11 09:00:00 2.5 2 Sur 10 Sudeste 0 -- -- 99
2020-01-11 08:00:00 2.6 6 Sudeste 10 Sudeste 0 -- -- 99
2020-01-11 07:00:00 2.6 4 Sur 9 Sudeste 0 -- -- 99
2020-01-11 06:00:00 1.8 4 Sur 14 Sudeste 0 -- -- 99
2020-01-11 05:00:00 1.8 2 Sudoeste 13 Sudeste 0 -- -- 98
2020-01-11 04:00:00 2.5 4 Sur 12 Sudeste 0 -- -- 97
2020-01-11 03:00:00 3.6 5 Sur 9 Sudeste 0 -- -- 96
2020-01-11 02:00:00 3.9 4 Sudeste 7 Sur 0 -- -- 95
2020-01-11 01:00:00 4 3 Sudoeste 5 Sudoeste 0 -- -- 98
2020-01-11 00:00:00 4.1 4 Sudoeste 5 Sudoeste 0 -- -- 97
2020-01-10 23:00:00 4.7 0 Calma 6 Sudeste 0 -- -- 96
2020-01-10 22:00:00 5.4 2 Sudoeste 10 Sudoeste 0 -- -- 96
2020-01-10 21:00:00 5.7 2 Sudoeste 15 Noroeste 0 -- -- 95
2020-01-10 20:00:00 5.6 5 Oeste 8 Oeste 0 -- -- 97
2020-01-10 19:00:00 5.6 4 Sudoeste 11 Oeste 0 -- -- 97
2020-01-10 18:00:00 5.1 6 Oeste 13 Nordeste 0 -- -- 94
2020-01-10 17:00:00 6.6 4 Noroeste 26 Nordeste 0 -- -- 91
2020-01-10 16:00:00 7.7 5 Noroeste 15 Nordeste 0 -- -- 91
2020-01-10 15:00:00 7.8 5 Norte 25 Noroeste 0 -- -- 91
2020-01-10 14:00:00 8.3 5 Norte 19 Noroeste 0 -- -- 92
2020-01-10 13:00:00 7.8 6 Noroeste 20 Oeste 0 -- -- 93
2020-01-10 12:00:00 7.1 7 Norte 29 Noroeste 0 -- -- 96
2020-01-10 11:00:00 6.6 11 Noroeste 35 Noroeste 0 -- -- 94
2020-01-10 10:00:00 6.2 13 Noroeste 31 Noroeste 0 -- -- 93
2020-01-10 09:00:00 5.8 13 Noroeste 30 Noroeste 0 -- -- 93
2020-01-10 08:00:00 5.6 11 Noroeste 32 Oeste 0 -- -- 93
2020-01-10 07:00:00 5.4 10 Noroeste 27 Noroeste 0 -- -- 93
2020-01-10 06:00:00 5.7 8 Noroeste 21 Norte 0 -- -- 92
2020-01-10 05:00:00 5.7 9 Noroeste 26 Noroeste 0 -- -- 93
2020-01-10 04:00:00 5.7 5 Noroeste 29 Noroeste 0.2 -- -- 94
2020-01-10 03:00:00 6.1 5 Noroeste 34 Oeste 0.6 -- -- 91
2020-01-10 02:00:00 6.3 5 Noroeste 15 Oeste 0 -- -- 87
2020-01-10 01:00:00 6.7 4 Noroeste 13 Oeste 0 -- -- 89
2020-01-10 00:00:00 6.8 4 Noroeste 17 Noroeste 0 -- -- 92
2020-01-09 23:00:00 7 4 Norte 12 Oeste 0.4 -- -- 95
2020-01-09 22:00:00 7.1 3 Noroeste 9 Noroeste 0 -- -- 95
2020-01-09 21:00:00 7.3 5 Noroeste 18 Oeste 0 -- -- 93
2020-01-09 20:00:00 7.9 7 Noroeste 17 Noroeste 0.6 -- -- 91
2020-01-09 19:00:00 8.3 8 Noroeste 27 Noroeste 0 -- -- 88
2020-01-09 18:00:00 8.3 12 Noroeste 40 Noroeste 0 -- -- 90
2020-01-09 17:00:00 12.5 9 Noroeste 35 Sudoeste 0 -- -- 66
2020-01-09 16:00:00 13 9 Noroeste 28 Oeste 0 -- -- 61
2020-01-09 15:00:00 13 4 Sudeste 28 Noroeste 0 -- -- 61
2020-01-09 14:00:00 11.8 11 Sudeste 25 Este 0 -- -- 62
2020-01-09 13:00:00 11.5 8 Sudeste 24 Sudeste 0 -- -- 60
2020-01-09 12:00:00 11.2 7 Sudoeste 27 Sur 0 -- -- 61
2020-01-09 11:00:00 8.1 6 Sudeste 16 Sudeste 0 -- -- 76
2020-01-09 10:00:00 6.4 6 Sudeste 16 Sudeste 0 -- -- 83
2020-01-09 09:00:00 6.9 10 Sudeste 23 Sudeste 0 -- -- 79
2020-01-09 08:00:00 7.4 8 Sur 21 Sudeste 0 -- -- 79
2020-01-09 07:00:00 5.8 10 Sudeste 18 Sudeste 0 -- -- 83
2020-01-09 06:00:00 5.9 10 Sudeste 17 Sudeste 0 -- -- 81
2020-01-09 05:00:00 6.3 9 Sudeste 18 Sudeste 0 -- -- 80
2020-01-09 04:00:00 7.1 5 Sur 18 Sur 0 -- -- 77
2020-01-09 03:00:00 7.1 9 Sudeste 16 Sudeste 0 -- -- 79
2020-01-09 02:00:00 7.1 5 Sur 14 Sudeste 0 -- -- 79
2020-01-09 01:00:00 7.3 5 Sur 12 Sur 0 -- -- 79
2020-01-09 00:00:00 8 4 Sudoeste 10 Sudeste 0 -- -- 75
2020-01-08 23:00:00 9 6 Sudeste 18 Sur 0 -- -- 75
2020-01-08 22:00:00 8.7 7 Sur 13 Sudeste 0 -- -- 80
2020-01-08 21:00:00 8.7 4 Sur 8 Sudeste 0 -- -- 84
2020-01-08 20:00:00 9.1 5 Sur 8 Sudeste 0 -- -- 81
2020-01-08 19:00:00 9.3 3 Sur 6 Sudeste 0 -- -- 80
2020-01-08 18:00:00 9.5 4 Oeste 6 Oeste 0 -- -- 82
2020-01-08 17:00:00 10.1 4 Sudoeste 6 Sudoeste 0 -- -- 80
2020-01-08 16:00:00 10.7 3 Sudoeste 6 Sudoeste 0 -- -- 76
2020-01-08 15:00:00 11.8 3 Oeste 8 Oeste 0 -- -- 75
2020-01-08 14:00:00 11.6 2 Oeste 6 Noroeste 0 -- -- 74
2020-01-08 13:00:00 10.6 0 Calma 4 Noroeste 0 -- -- 82
2020-01-08 12:00:00 9.4 0 Calma 5 Sudeste 0 -- -- 85
2020-01-08 11:00:00 8.5 3 Sudeste 6 Sur 0 -- -- 92
2020-01-08 10:00:00 7.9 0 Calma 4 Oeste 0 -- -- 94
2020-01-08 09:00:00 7.3 2 Sudoeste 8 Sudeste 0 -- -- 96
2020-01-08 08:00:00 7.4 5 Sur 8 Sudeste 0 -- -- 95
2020-01-08 07:00:00 7.3 0 Calma 6 Sur 0 -- -- 94
2020-01-08 06:00:00 7.9 4 Sur 8 Sudeste 0 -- -- 94
2020-01-08 05:00:00 7.8 3 Sur 9 Sudeste 0 -- -- 92
2020-01-08 04:00:00 7.7 3 Sur 10 Sudeste 0 -- -- 94
2020-01-08 03:00:00 8.3 2 Sudoeste 8 Sur 0 -- -- 92
2020-01-08 02:00:00 8.2 4 Sur 9 Sur 0 -- -- 92
2020-01-08 01:00:00 8 4 Sur 8 Sur 0 -- -- 92
2020-01-08 00:00:00 7.8 4 Sur 7 Sudeste 0 -- -- 93
2020-01-07 23:00:00 8.1 3 Sur 5 Sur 0 -- -- 92
2020-01-07 22:00:00 7.8 2 Oeste 4 Sur 0 -- -- 93
2020-01-07 21:00:00 8.1 3 Sur 6 Sudeste 0 -- -- 92
2020-01-07 20:00:00 8.1 3 Oeste 4 Sudoeste 0 -- -- 92
2020-01-07 19:00:00 8.8 3 Sudoeste 6 Sudoeste 0 -- -- 90
2020-01-07 18:00:00 9.4 4 Sudoeste 8 Oeste 0 -- -- 88
2020-01-07 17:00:00 10.2 3 Sudoeste 5 Sudoeste 0 -- -- 88
2020-01-07 16:00:00 10.4 4 Sudoeste 6 Oeste 0 -- -- 86
2020-01-07 15:00:00 10.8 3 Sur 8 Sur 0 -- -- 80
2020-01-07 14:00:00 9.6 4 Sudeste 10 Sudeste 0 -- -- 78
2020-01-07 13:00:00 7.9 5 Sudeste 12 Sur 0 -- -- 83
2020-01-07 12:00:00 6.6 6 Sudeste 10 Sudeste 0 -- -- 87
2020-01-07 11:00:00 6.1 2 Sur 14 Sudeste 0 -- -- 91
2020-01-07 10:00:00 4.4 5 Sur 13 Sudeste 0 -- -- 96
2020-01-07 09:00:00 3.4 5 Sur 14 Sur 0 -- -- 97
2020-01-07 08:00:00 3.5 9 Sur 14 Sudeste 0 -- -- 97
2020-01-07 07:00:00 3.7 5 Sur 10 Sudeste 0 -- -- 96
2020-01-07 06:00:00 4.5 6 Sur 10 Sudeste 0 -- -- 93
2020-01-07 05:00:00 4.2 5 Sur 8 Sudeste 0 -- -- 96
2020-01-07 04:00:00 3.9 4 Sudoeste 9 Sudeste 0 -- -- 96
2020-01-07 03:00:00 4.5 7 Sudeste 10 Sudeste 0 -- -- 95
2020-01-07 02:00:00 5.2 4 Sur 9 Sudeste 0 -- -- 97
2020-01-07 01:00:00 5.1 5 Sudeste 9 Sudeste 0 -- -- 97
2020-01-07 00:00:00 4.3 3 Sudoeste 6 Sudeste 0 -- -- 96
2020-01-06 23:00:00 4.4 3 Sur 5 Sudoeste 0 -- -- 96
2020-01-06 22:00:00 4.8 0 Calma 5 Sudoeste 0 -- -- 96
2020-01-06 21:00:00 5.2 4 Sudoeste 6 Oeste 0 -- -- 96
2020-01-06 20:00:00 5.1 4 Oeste 8 Oeste 0 -- -- 96
2020-01-06 19:00:00 5.1 2 Oeste 6 Sudoeste 0 -- -- 94
2020-01-06 18:00:00 6 4 Oeste 16 Noroeste 0 -- -- 89
2020-01-06 17:00:00 7.7 8 Oeste 15 Noroeste 0 -- -- 79
2020-01-06 16:00:00 7.8 5 Oeste 11 Oeste 0 -- -- 76
2020-01-06 15:00:00 8.1 4 Sudoeste 6 Sur 0 -- -- 74
2020-01-06 14:00:00 7.3 3 Sur 8 Este 0 -- -- 77
2020-01-06 13:00:00 6.2 3 Sur 13 Sudeste 0 -- -- 81
2020-01-06 12:00:00 5.1 4 Sudeste 11 Sudeste 0 -- -- 80
2020-01-06 11:00:00 4.3 7 Sudeste 10 Sudeste 0 -- -- 83
2020-01-06 10:00:00 3.3 5 Sur 9 Sudeste 0 -- -- 81